createdAt,value
2019-02-02T00:00:35.964Z,99.90
2019-02-02T00:03:06.098Z,99.90
2019-02-02T00:05:35.741Z,99.90
2019-02-02T00:08:06.654Z,99.90
2019-02-02T00:10:36.670Z,99.90
2019-02-02T00:13:06.530Z,99.90
2019-02-02T00:15:42.646Z,99.90
2019-02-02T00:18:14.751Z,99.90
2019-02-02T00:20:45.194Z,99.90
2019-02-02T00:23:16.147Z,99.90
2019-02-02T00:25:48.291Z,99.90
2019-02-02T00:28:19.003Z,99.90
2019-02-02T00:30:48.956Z,99.90
2019-02-02T00:33:18.821Z,99.90
2019-02-02T00:39:00.913Z,99.90
2019-02-02T00:41:30.762Z,99.90
2019-02-02T00:44:00.479Z,99.90
2019-02-02T00:46:30.159Z,99.90
2019-02-02T00:48:59.967Z,99.90
2019-02-02T00:51:29.773Z,99.90
2019-02-02T00:53:59.788Z,99.90
2019-02-02T00:56:29.427Z,99.90
2019-02-02T00:58:59.040Z,99.90
2019-02-02T01:01:28.763Z,99.90
2019-02-02T01:03:58.488Z,99.90
2019-02-02T01:06:28.134Z,99.90
2019-02-02T01:08:57.929Z,99.90
2019-02-02T01:11:28.040Z,99.90
2019-02-02T01:13:57.713Z,99.90
2019-02-02T01:16:27.290Z,99.90
2019-02-02T01:18:57.058Z,99.90
2019-02-02T01:21:26.746Z,99.90
2019-02-02T01:23:56.418Z,99.90
2019-02-02T01:26:26.026Z,99.90
2019-02-02T01:28:55.978Z,99.90
2019-02-02T01:31:26.140Z,99.90
2019-02-02T01:33:55.850Z,99.90
2019-02-02T01:36:25.779Z,99.90
2019-02-02T01:38:55.428Z,99.90
2019-02-02T01:41:25.358Z,99.90
2019-02-02T01:43:55.013Z,99.90
2019-02-02T01:46:24.562Z,99.90
2019-02-02T01:48:54.227Z,99.90
2019-02-02T01:51:24.189Z,99.90
2019-02-02T01:53:53.785Z,99.90
2019-02-02T01:56:23.766Z,99.90
2019-02-02T01:58:53.614Z,99.90
2019-02-02T02:01:23.559Z,99.90
2019-02-02T02:03:53.533Z,99.90
2019-02-02T02:06:23.654Z,99.90
2019-02-02T02:08:53.293Z,99.90
2019-02-02T02:11:23.676Z,99.90
2019-02-02T02:13:53.921Z,99.90
2019-02-02T02:16:23.867Z,99.90
2019-02-02T02:18:54.022Z,99.90
2019-02-02T02:21:23.935Z,99.90
2019-02-02T02:23:54.027Z,99.90
2019-02-02T02:26:24.047Z,99.90
2019-02-02T02:28:54.309Z,99.90
2019-02-02T02:31:24.735Z,99.90
2019-02-02T02:33:54.853Z,99.90
2019-02-02T02:36:24.944Z,99.90
2019-02-02T02:38:55.437Z,99.90
2019-02-02T02:41:27.026Z,99.90
2019-02-02T02:43:56.847Z,99.90
2019-02-02T02:46:26.933Z,99.90
2019-02-02T02:48:56.724Z,99.90
2019-02-02T02:51:26.662Z,99.90
2019-02-02T02:53:56.687Z,99.90
2019-02-02T02:56:26.559Z,99.90
2019-02-02T02:58:56.390Z,99.90
2019-02-02T03:01:26.574Z,99.90
2019-02-02T03:03:56.505Z,99.90
2019-02-02T03:06:26.341Z,99.90
2019-02-02T03:08:56.208Z,99.90
2019-02-02T03:11:26.164Z,99.90
2019-02-02T03:13:56.349Z,99.90
2019-02-02T03:16:26.559Z,99.90
2019-02-02T03:18:56.494Z,99.90
2019-02-02T03:21:26.395Z,99.90
2019-02-02T03:23:56.570Z,99.90
2019-02-02T03:26:26.120Z,99.90
2019-02-02T03:28:56.240Z,99.90
2019-02-02T03:31:26.446Z,99.90
2019-02-02T03:33:56.766Z,99.90
2019-02-02T03:36:26.711Z,99.90
2019-02-02T03:38:57.070Z,99.90
2019-02-02T03:41:28.824Z,99.90
2019-02-02T03:44:01.223Z,99.90
2019-02-02T03:46:31.218Z,99.90
2019-02-02T03:49:01.726Z,99.90
2019-02-02T03:51:31.742Z,99.90
2019-02-02T03:54:08.852Z,99.90
2019-02-02T03:56:33.502Z,99.90
2019-02-02T03:59:06.580Z,99.90
2019-02-02T04:01:35.247Z,99.90
2019-02-02T04:04:05.265Z,99.90
2019-02-02T04:06:35.299Z,99.90
2019-02-02T04:09:07.690Z,99.90
2019-02-02T04:11:38.006Z,99.90
2019-02-02T04:14:08.211Z,99.90
2019-02-02T04:16:38.901Z,99.90
2019-02-02T04:19:08.745Z,99.90
2019-02-02T04:21:38.397Z,99.90
2019-02-02T04:24:08.662Z,99.90
2019-02-02T04:26:38.846Z,99.90
2019-02-02T04:29:17.590Z,99.90
2019-02-02T04:31:40.240Z,99.90
2019-02-02T04:34:10.160Z,99.90
2019-02-02T04:36:40.213Z,99.90
2019-02-02T04:39:10.268Z,99.90
2019-02-02T04:41:39.807Z,99.90
2019-02-02T04:44:09.712Z,99.90
2019-02-02T04:46:41.476Z,99.90
2019-02-02T04:49:11.541Z,99.90
2019-02-02T04:51:41.150Z,99.90
2019-02-02T04:54:10.720Z,99.90
2019-02-02T04:56:40.807Z,99.90
2019-02-02T04:59:10.685Z,99.90
2019-02-02T05:01:40.550Z,99.90
2019-02-02T05:04:10.224Z,99.90
2019-02-02T05:06:40.436Z,99.90
2019-02-02T05:09:10.253Z,99.90
2019-02-02T05:11:40.763Z,99.90
2019-02-02T05:14:10.454Z,99.90
2019-02-02T05:16:41.537Z,99.90
2019-02-02T05:19:11.770Z,99.90
2019-02-02T05:21:41.698Z,99.90
2019-02-02T05:24:11.963Z,99.90
2019-02-02T05:26:41.847Z,99.90
2019-02-02T05:29:11.582Z,99.90
2019-02-02T05:31:41.880Z,99.90
2019-02-02T05:34:14.747Z,99.90
2019-02-02T05:36:45.227Z,99.90
2019-02-02T05:39:15.101Z,99.90
2019-02-02T05:41:46.231Z,99.90
2019-02-02T05:44:16.208Z,99.90
2019-02-02T05:46:46.413Z,99.90
2019-02-02T05:49:16.236Z,99.90
2019-02-02T05:51:46.259Z,99.90
2019-02-02T05:54:16.539Z,99.90
2019-02-02T05:56:46.074Z,99.90
2019-02-02T05:59:16.127Z,99.90
2019-02-02T06:01:47.699Z,99.90
2019-02-02T06:04:19.086Z,99.90
2019-02-02T06:06:49.577Z,99.90
2019-02-02T06:09:19.313Z,99.90
2019-02-02T06:11:49.449Z,99.90
2019-02-02T06:14:20.494Z,99.90
2019-02-02T06:16:50.137Z,99.90
2019-02-02T06:19:20.026Z,99.90
2019-02-02T06:21:50.498Z,99.90
2019-02-02T06:24:22.273Z,99.90
2019-02-02T06:26:53.243Z,99.90
2019-02-02T06:29:23.639Z,99.90
2019-02-02T06:31:54.017Z,99.90
2019-02-02T06:34:25.275Z,99.90
2019-02-02T06:36:55.330Z,99.90
2019-02-02T06:39:25.331Z,99.90
2019-02-02T06:41:55.158Z,99.90
2019-02-02T06:44:25.514Z,99.90
2019-02-02T06:46:56.114Z,99.90
2019-02-02T06:49:27.107Z,99.90
2019-02-02T06:51:57.651Z,99.90
2019-02-02T06:54:31.691Z,99.90
2019-02-02T06:57:00.967Z,99.90
2019-02-02T06:59:31.011Z,99.90
2019-02-02T07:02:00.914Z,99.90
2019-02-02T07:04:30.368Z,99.90
2019-02-02T07:07:00.079Z,99.90
2019-02-02T07:09:29.900Z,99.90
2019-02-02T07:11:59.578Z,99.90
2019-02-02T07:14:29.236Z,99.90
2019-02-02T07:16:58.746Z,99.90
2019-02-02T07:19:29.223Z,99.90
2019-02-02T07:21:58.990Z,99.90
2019-02-02T07:24:28.575Z,99.90
2019-02-02T07:26:58.221Z,99.90
2019-02-02T07:29:27.965Z,99.90
2019-02-02T07:31:57.626Z,99.90
2019-02-02T07:34:27.202Z,99.90
2019-02-02T07:36:56.767Z,99.90
2019-02-02T07:39:26.385Z,99.90
2019-02-02T07:41:55.923Z,99.90
2019-02-02T07:44:25.500Z,99.90
2019-02-02T07:46:55.265Z,99.90
2019-02-02T07:49:24.889Z,99.90
2019-02-02T07:51:54.407Z,99.90
2019-02-02T07:54:23.948Z,99.90
2019-02-02T07:56:53.509Z,99.90
2019-02-02T07:59:23.102Z,99.80
2019-02-02T08:01:52.748Z,99.90
2019-02-02T08:04:22.520Z,99.90
2019-02-02T08:06:52.033Z,99.80
2019-02-02T08:09:21.587Z,99.60
2019-02-02T08:11:51.357Z,99.70
2019-02-02T08:14:21.223Z,99.60
2019-02-02T08:16:52.642Z,99.60
2019-02-02T08:19:25.524Z,99.60
2019-02-02T08:21:55.506Z,99.80
2019-02-02T08:24:25.361Z,99.60
2019-02-02T08:26:55.197Z,99.40
2019-02-02T08:29:24.940Z,99.50
2019-02-02T08:31:54.677Z,99.40
2019-02-02T08:34:24.384Z,99.30
2019-02-02T08:36:53.990Z,99.40
2019-02-02T08:39:29.082Z,99.30
2019-02-02T08:41:56.030Z,99.40
2019-02-02T08:44:25.705Z,99.20
2019-02-02T08:46:55.262Z,99.40
2019-02-02T08:49:25.048Z,99.20
2019-02-02T08:51:54.696Z,99.10
2019-02-02T08:54:24.276Z,99.20
2019-02-02T08:56:53.986Z,98.80
2019-02-02T08:59:23.978Z,98.70
2019-02-02T09:01:53.798Z,98.60
2019-02-02T09:04:23.508Z,98.60
2019-02-02T09:06:53.157Z,98.30
2019-02-02T09:09:22.728Z,98.40
2019-02-02T09:11:52.422Z,98.00
2019-02-02T09:14:22.021Z,98.30
2019-02-02T09:16:51.593Z,98.40
2019-02-02T09:19:21.153Z,98.50
2019-02-02T09:21:51.094Z,98.70
2019-02-02T09:24:20.959Z,98.50
2019-02-02T09:26:50.602Z,98.20
2019-02-02T09:29:20.421Z,98.40
2019-02-02T09:31:50.081Z,98.10
2019-02-02T09:34:19.751Z,97.90
2019-02-02T09:36:49.528Z,97.90
2019-02-02T09:39:19.075Z,98.00
2019-02-02T09:41:48.573Z,98.00
2019-02-02T09:44:18.554Z,98.00
2019-02-02T09:46:48.051Z,98.00
2019-02-02T09:49:17.605Z,98.00
2019-02-02T09:51:47.403Z,98.00
2019-02-02T09:54:26.357Z,98.00
2019-02-02T09:56:48.359Z,98.10
2019-02-02T09:59:18.035Z,97.90
2019-02-02T10:01:47.546Z,98.30
2019-02-02T10:04:17.514Z,98.00
2019-02-02T10:06:47.169Z,97.90
2019-02-02T10:09:16.757Z,98.40
2019-02-02T10:11:47.542Z,97.70
2019-02-02T10:14:17.383Z,97.90
2019-02-02T10:16:47.718Z,97.90
2019-02-02T10:19:17.510Z,97.80
2019-02-02T10:21:49.677Z,97.80
2019-02-02T10:24:18.879Z,98.00
2019-02-02T10:26:48.585Z,98.10
2019-02-02T10:29:18.299Z,98.50
2019-02-02T10:31:48.337Z,98.10
2019-02-02T10:34:18.022Z,98.20
2019-02-02T10:36:47.741Z,98.40
2019-02-02T10:39:17.634Z,98.50
2019-02-02T10:41:47.595Z,98.70
2019-02-02T10:44:17.788Z,98.90
2019-02-02T10:46:47.749Z,98.90
2019-02-02T10:49:17.876Z,98.70
2019-02-02T10:51:47.419Z,98.80
2019-02-02T10:54:17.042Z,98.80
2019-02-02T10:56:46.742Z,98.80
2019-02-02T10:59:16.351Z,99.00
2019-02-02T11:01:51.260Z,99.00
2019-02-02T11:04:17.126Z,99.00
2019-02-02T11:06:47.041Z,99.00
2019-02-02T11:09:16.656Z,99.10
2019-02-02T11:11:46.626Z,99.10
2019-02-02T11:14:16.152Z,99.40
2019-02-02T11:16:45.813Z,99.40
2019-02-02T11:19:15.522Z,99.20
2019-02-02T11:21:45.369Z,99.00
2019-02-02T11:24:15.443Z,99.10
2019-02-02T11:26:45.222Z,99.20
2019-02-02T11:29:14.802Z,99.50
2019-02-02T11:31:44.476Z,99.40
2019-02-02T11:34:14.344Z,99.50
2019-02-02T11:36:44.050Z,99.70
2019-02-02T11:39:13.825Z,99.30
2019-02-02T11:41:43.501Z,99.00
2019-02-02T11:44:13.149Z,98.40
2019-02-02T11:46:42.888Z,98.00
2019-02-02T11:49:12.551Z,98.10
2019-02-02T11:51:42.343Z,98.00
2019-02-02T11:54:12.022Z,98.20
2019-02-02T11:56:41.584Z,98.30
2019-02-02T11:59:11.225Z,98.30
2019-02-02T12:01:40.830Z,98.30
2019-02-02T12:04:10.654Z,98.30
2019-02-02T12:06:40.210Z,98.20
2019-02-02T12:09:09.868Z,98.30
2019-02-02T12:11:39.368Z,98.60
2019-02-02T12:14:09.011Z,98.40
2019-02-02T12:16:38.760Z,98.30
2019-02-02T12:19:08.494Z,98.20
2019-02-02T12:21:38.337Z,97.90
2019-02-02T12:24:15.832Z,97.90
2019-02-02T12:26:39.513Z,97.80
2019-02-02T12:29:09.322Z,97.60
2019-02-02T12:31:39.619Z,97.90
2019-02-02T12:34:10.528Z,97.90
2019-02-02T12:36:40.094Z,98.10
2019-02-02T12:39:11.769Z,98.10
2019-02-02T12:41:41.434Z,98.40
2019-02-02T12:44:11.181Z,98.10
2019-02-02T12:46:40.748Z,97.90
2019-02-02T12:49:10.381Z,97.90
2019-02-02T12:51:40.681Z,97.70
2019-02-02T12:54:10.341Z,97.50
2019-02-02T12:56:40.229Z,97.20
2019-02-02T12:59:10.089Z,97.00
2019-02-02T13:01:39.609Z,97.20
2019-02-02T13:04:09.422Z,97.40
2019-02-02T13:06:39.136Z,96.80
2019-02-02T13:09:10.455Z,96.70
2019-02-02T13:11:40.790Z,96.50
2019-02-02T13:14:10.498Z,96.90
2019-02-02T13:16:40.062Z,97.10
2019-02-02T13:19:10.079Z,97.30
2019-02-02T13:21:39.415Z,97.50
2019-02-02T13:24:09.173Z,97.20
2019-02-02T13:26:38.562Z,97.10
2019-02-02T13:29:07.995Z,96.90
2019-02-02T13:31:37.580Z,97.00
2019-02-02T13:34:07.063Z,96.90
2019-02-02T13:36:36.526Z,96.90
2019-02-02T13:39:09.533Z,97.00
2019-02-02T13:41:38.971Z,96.60
2019-02-02T13:44:08.314Z,96.00
2019-02-02T13:46:37.875Z,95.90
2019-02-02T13:49:07.491Z,95.70
2019-02-02T13:51:36.924Z,95.80
2019-02-02T13:54:06.733Z,96.00
2019-02-02T13:56:36.409Z,96.40
2019-02-02T13:59:06.131Z,96.50
2019-02-02T14:01:42.069Z,96.60
2019-02-02T14:04:07.063Z,96.80
2019-02-02T14:06:36.502Z,96.90
2019-02-02T14:09:08.971Z,97.20
2019-02-02T14:11:38.759Z,97.30
2019-02-02T14:14:08.205Z,97.70
2019-02-02T14:16:37.634Z,98.30
2019-02-02T14:19:07.213Z,98.40
2019-02-02T14:21:37.192Z,98.60
2019-02-02T14:24:06.808Z,99.10
2019-02-02T14:26:36.362Z,98.50
2019-02-02T14:29:05.971Z,98.60
2019-02-02T14:31:35.491Z,98.70
2019-02-02T14:34:05.265Z,98.80
2019-02-02T14:36:35.080Z,99.00
2019-02-02T14:39:07.285Z,99.00
2019-02-02T14:41:37.078Z,99.00
2019-02-02T14:44:06.630Z,99.30
2019-02-02T14:46:36.454Z,99.50
2019-02-02T14:49:08.731Z,99.50
2019-02-02T14:51:38.360Z,99.50
2019-02-02T14:54:08.181Z,99.20
2019-02-02T14:56:37.995Z,99.30
2019-02-02T14:59:07.735Z,99.40
2019-02-02T15:01:37.305Z,99.30
2019-02-02T15:04:07.264Z,99.00
2019-02-02T15:06:36.902Z,99.00
2019-02-02T15:09:07.731Z,98.70
2019-02-02T15:11:37.318Z,98.70
2019-02-02T15:14:07.075Z,98.60
2019-02-02T15:16:36.737Z,98.70
2019-02-02T15:19:06.570Z,98.70
2019-02-02T15:21:36.521Z,98.80
2019-02-02T15:24:07.213Z,99.00
2019-02-02T15:26:37.426Z,98.80
2019-02-02T15:29:07.187Z,99.00
2019-02-02T15:31:37.322Z,98.80
2019-02-02T15:34:07.145Z,98.60
2019-02-02T15:36:36.812Z,98.70
2019-02-02T15:39:09.791Z,98.60
2019-02-02T15:41:39.263Z,98.70
2019-02-02T15:44:08.954Z,98.70
2019-02-02T15:46:48.780Z,99.00
2019-02-02T15:49:10.309Z,99.00
2019-02-02T15:51:40.541Z,99.20
2019-02-02T15:54:10.311Z,99.30
2019-02-02T15:56:39.920Z,99.50
2019-02-02T15:59:09.610Z,99.50
2019-02-02T16:01:39.280Z,99.20
2019-02-02T16:04:08.865Z,99.20
2019-02-02T16:06:38.595Z,99.30
2019-02-02T16:09:10.946Z,99.40
2019-02-02T16:11:40.446Z,99.40
2019-02-02T16:14:10.467Z,99.60
2019-02-02T16:16:40.000Z,99.80
2019-02-02T16:19:10.116Z,99.30
2019-02-02T16:21:41.528Z,99.40
2019-02-02T16:24:12.217Z,99.40
2019-02-02T16:26:44.482Z,99.60
2019-02-02T16:29:15.479Z,99.70
2019-02-02T16:31:45.054Z,99.90
2019-02-02T16:34:15.687Z,99.90
2019-02-02T16:36:45.438Z,99.90
2019-02-02T16:39:15.260Z,99.90
2019-02-02T16:41:45.164Z,99.70
2019-02-02T16:44:15.009Z,99.80
2019-02-02T16:46:44.782Z,99.80
2019-02-02T16:49:14.281Z,99.70
2019-02-02T16:51:43.985Z,99.80
2019-02-02T16:54:13.693Z,99.90
2019-02-02T16:56:43.613Z,99.70
2019-02-02T16:59:13.117Z,99.80
2019-02-02T17:01:43.034Z,99.90
2019-02-02T17:04:15.840Z,99.90
2019-02-02T17:06:48.453Z,99.90
2019-02-02T17:09:18.970Z,99.90
2019-02-02T17:11:48.664Z,99.90
2019-02-02T17:14:18.684Z,99.90
2019-02-02T17:16:48.478Z,99.90
2019-02-02T17:19:19.341Z,99.90
2019-02-02T17:21:49.108Z,99.90
2019-02-02T17:24:18.791Z,99.90
2019-02-02T17:26:48.518Z,99.90
2019-02-02T17:29:18.242Z,99.90
2019-02-02T17:31:47.671Z,99.90
2019-02-02T17:34:26.866Z,99.90
2019-02-02T17:36:48.614Z,99.90
2019-02-02T17:39:18.042Z,99.90
2019-02-02T17:41:47.505Z,99.90
2019-02-02T17:44:17.105Z,99.90
2019-02-02T17:46:46.799Z,99.90
2019-02-02T17:49:16.596Z,99.90
2019-02-02T17:51:46.220Z,99.90
2019-02-02T17:54:17.628Z,99.90
2019-02-02T17:56:47.890Z,99.90
2019-02-02T17:59:18.429Z,99.90
2019-02-02T18:01:48.837Z,99.90
2019-02-02T18:04:20.642Z,99.90
2019-02-02T18:06:51.191Z,99.90
2019-02-02T18:09:21.811Z,99.90
2019-02-02T18:11:52.995Z,99.90
2019-02-02T18:14:24.509Z,99.90
2019-02-02T18:16:55.148Z,99.90
2019-02-02T18:19:26.148Z,99.90
2019-02-02T18:21:57.900Z,99.90
2019-02-02T18:24:29.424Z,99.90
2019-02-02T18:27:01.635Z,99.90
2019-02-02T18:29:31.881Z,99.90
2019-02-02T18:32:12.906Z,99.90
2019-02-02T18:34:36.750Z,99.90
2019-02-02T18:37:08.079Z,99.90
2019-02-02T18:39:43.384Z,99.90
2019-02-02T18:42:15.744Z,99.90
2019-02-02T18:44:46.610Z,99.90
2019-02-02T18:47:18.301Z,99.80
2019-02-02T18:49:49.394Z,99.60
2019-02-02T18:52:20.521Z,99.40
2019-02-02T18:54:50.594Z,99.10
2019-02-02T18:57:25.143Z,99.00
2019-02-02T18:59:58.331Z,99.10
2019-02-02T19:02:34.930Z,99.20
2019-02-02T19:05:07.454Z,99.20
2019-02-02T19:07:38.505Z,99.30
2019-02-02T19:10:20.040Z,99.30
2019-02-02T19:12:52.031Z,99.50
2019-02-02T19:15:28.034Z,99.50
2019-02-02T19:17:58.262Z,99.30
2019-02-02T19:20:33.258Z,99.30
2019-02-02T19:23:03.376Z,99.40
2019-02-02T19:25:37.648Z,99.70
2019-02-02T19:28:11.966Z,99.60
2019-02-02T19:30:42.885Z,99.50
2019-02-02T19:33:17.302Z,99.50
2019-02-02T19:35:52.983Z,99.40
2019-02-02T19:38:23.338Z,99.40
2019-02-02T19:40:53.715Z,99.50
2019-02-02T19:43:24.730Z,99.40
2019-02-02T19:45:55.374Z,99.50
2019-02-02T19:48:28.236Z,99.50
2019-02-02T19:50:59.464Z,99.60
2019-02-02T19:53:31.914Z,99.70
2019-02-02T19:56:05.243Z,99.80
2019-02-02T19:58:39.376Z,99.80
2019-02-02T20:01:11.453Z,99.90
2019-02-02T20:03:43.111Z,99.90
2019-02-02T20:06:14.086Z,99.90
2019-02-02T20:08:44.933Z,99.90
2019-02-02T20:11:15.301Z,99.90
2019-02-02T20:13:47.330Z,99.90
2019-02-02T20:16:20.966Z,99.90
2019-02-02T20:18:52.675Z,99.90
2019-02-02T20:21:23.798Z,99.90
2019-02-02T20:23:54.496Z,99.90
2019-02-02T20:26:25.839Z,99.90
2019-02-02T20:28:56.779Z,99.90
2019-02-02T20:31:28.360Z,99.80
2019-02-02T20:34:00.524Z,99.90
2019-02-02T20:36:32.248Z,99.90
2019-02-02T20:39:03.792Z,99.80
2019-02-02T20:41:35.060Z,99.40
2019-02-02T20:44:05.446Z,99.60
2019-02-02T20:46:35.296Z,99.70
2019-02-02T20:49:07.964Z,99.90
2019-02-02T20:51:37.321Z,99.80
2019-02-02T20:54:07.248Z,99.90
2019-02-02T20:56:37.037Z,99.90
2019-02-02T20:59:07.289Z,99.90
2019-02-02T21:01:37.408Z,99.90
2019-02-02T21:04:07.759Z,99.90
2019-02-02T21:06:37.334Z,99.90
2019-02-02T21:09:08.657Z,99.90
2019-02-02T21:11:39.583Z,99.90
2019-02-02T21:14:09.568Z,99.90
2019-02-02T21:16:39.901Z,99.90
2019-02-02T21:19:09.954Z,99.90
2019-02-02T21:21:40.087Z,99.90
2019-02-02T21:24:09.563Z,99.90
2019-02-02T21:26:39.143Z,99.90
2019-02-02T21:29:08.779Z,99.90
2019-02-02T21:31:38.377Z,99.90
2019-02-02T21:34:08.346Z,99.70
2019-02-02T21:36:38.109Z,99.50
2019-02-02T21:39:09.194Z,99.40
2019-02-02T21:41:40.859Z,99.40
2019-02-02T21:44:10.874Z,99.40
2019-02-02T21:46:40.825Z,99.00
2019-02-02T21:49:10.697Z,98.90
2019-02-02T21:51:40.202Z,98.90
2019-02-02T21:54:10.057Z,98.80
2019-02-02T21:56:40.099Z,99.00
2019-02-02T21:59:09.952Z,99.30
2019-02-02T22:01:40.032Z,99.40
2019-02-02T22:04:09.723Z,99.40
2019-02-02T22:06:40.510Z,99.40
2019-02-02T22:09:10.136Z,99.40
2019-02-02T22:11:39.643Z,99.50
2019-02-02T22:14:09.059Z,99.60
2019-02-02T22:16:38.685Z,99.60
2019-02-02T22:19:08.207Z,99.60
2019-02-02T22:21:37.960Z,99.60
2019-02-02T22:24:07.994Z,99.30
2019-02-02T22:26:38.190Z,99.50
2019-02-02T22:29:08.807Z,99.30
2019-02-02T22:31:39.224Z,99.30
2019-02-02T22:34:08.824Z,99.20
2019-02-02T22:36:38.646Z,99.10
2019-02-02T22:39:09.600Z,99.30
2019-02-02T22:41:39.289Z,99.30
2019-02-02T22:44:09.380Z,99.20
2019-02-02T22:46:39.620Z,99.20
2019-02-02T22:49:09.162Z,99.30
2019-02-02T22:51:39.064Z,99.10
2019-02-02T22:54:08.968Z,99.20
2019-02-02T22:56:39.054Z,99.50
2019-02-02T22:59:08.722Z,99.50
2019-02-02T23:01:45.100Z,99.30
2019-02-02T23:04:45.903Z,99.10
2019-02-02T23:07:39.125Z,99.10
2019-02-02T23:10:48.641Z,99.10
2019-02-02T23:13:52.298Z,99.20
2019-02-02T23:16:29.245Z,99.10
2019-02-02T23:18:59.808Z,99.30
2019-02-02T23:21:30.964Z,99.20
2019-02-02T23:24:00.860Z,99.00
2019-02-02T23:26:30.941Z,99.10
2019-02-02T23:29:01.429Z,98.80
2019-02-02T23:31:31.392Z,99.00
2019-02-02T23:34:01.436Z,98.80
2019-02-02T23:36:30.935Z,98.70
2019-02-02T23:39:00.903Z,98.60
2019-02-02T23:41:30.721Z,98.60
2019-02-02T23:44:00.368Z,98.60
2019-02-02T23:46:30.266Z,98.80
2019-02-02T23:49:00.864Z,98.60
2019-02-02T23:51:31.338Z,98.80
2019-02-02T23:54:01.022Z,98.90
2019-02-02T23:56:31.310Z,99.10
2019-02-02T23:59:01.014Z,99.10
